Flight Track Log - Related Links

Times and Time Zones

All times are in EDT time to prevent confusion due to time zone crossing. See the FLG3432 flight status page for this flight to view local times or setup timezone preferences in your user account.


Time Position Orientation Groundspeed Altitude Reporting Facility
EDT Latitude Longitude Course Direction KTS MPH feet Rate Location/Type
Sat 08:54:08 AM 40.6500 -73.8500 229° Southwest 179 206 1,900  Level New York TRACON
Sat 08:55:14 AM 40.6000 -73.9000 217° Southwest 238 274 4,300 2,650 Climbing New York TRACON
Sat 08:56:00 AM 40.4398 -74.0748 233° Southwest  Level FlightAware Approximate
Sat 08:56:08 AM 40.5333 -73.9500 210° Southwest 278 320 7,200  Level New York TRACON
Sat 08:57:00 AM 40.3743 -74.1870 233° Southwest  Level FlightAware Approximate
Sat 08:57:08 AM 40.4667 -74.0167 217° Southwest 296 341 10,200  Level New York TRACON
Sat 08:58:00 AM 40.3079 -74.2981 232° Southwest  Level FlightAware Approximate
Sat 08:58:14 AM 40.3833 -74.0833 211° Southwest 340 391 11,100  Level New York TRACON
Sat 08:59:00 AM 40.2451 -74.4073 229° Southwest  Level FlightAware Approximate
Sat 08:59:14 AM 40.3333 -74.1833 237° Southwest 349 402 13,800  Level New York TRACON
Sat 09:00:17 AM 40.2900 -74.3000 244° Southwest 358 412 16,300 1,561 Climbing New York Center
Sat 09:01:17 AM 40.2453 -74.4011 240° Southwest 370 426 17,000 750 Climbing New York Center
Sat 09:02:17 AM 40.1994 -74.5319 245° Southwest 365 420 17,800 1,525 Climbing New York Center
Sat 09:03:19 AM 40.1889 -74.6672 264° West 368 423 20,100 2,100 Climbing New York Center
Sat 09:04:17 AM 40.1783 -74.7917 264° West 373 429 22,000 958 Climbing New York Center
Sat 09:05:18 AM 40.1717 -74.9269 266° West 373 429 22,000  Level New York Center
Sat 09:06:16 AM 40.1583 -75.0675 263° West 378 435 22,000  Level New York Center
Sat 09:07:19 AM 40.1489 -75.2053 265° West 384 442 22,000  Level New York Center
Sat 09:08:16 AM 40.1375 -75.3431 264° West 384 442 22,000  Level New York Center
Sat 09:09:17 AM 40.0744 -75.4611 235° Southwest 384 442 22,000  Level New York Center
Sat 09:10:17 AM 39.9972 -75.5642 226° Southwest 391 450 22,000  Level New York Center
Sat 09:11:18 AM 39.9219 -75.6756 229° Southwest 402 463 22,000  Level New York Center
Sat 09:12:18 AM 39.8608 -75.7903 235° Southwest 408 470 22,000 -508 Level New York Center
Sat 09:13:16 AM 39.7994 -75.9075 236° Southwest 398 458 21,000 -1,438 Descending New York Center
Sat 09:14:19 AM 39.7400 -76.0247 237° Southwest 392 451 19,100 -1,770 Descending New York Center
Sat 09:15:18 AM 39.6700 -76.1461 233° Southwest 384 442 17,400 -1,940 Descending New York Center
Sat 09:17:06 AM 39.5500 -76.3333 230° Southwest 372 428 13,700 -1,963 Descending Potomac TRACON
Sat 09:18:00 AM 39.4667 -76.4000 212° Southwest 365 420 12,100 -1,050 Descending Potomac TRACON
Sat 09:19:06 AM 39.3833 -76.4833 218° Southwest 358 412 11,600 -900 Descending Potomac TRACON
Sat 09:20:00 AM 39.3000 -76.5500 212° Southwest 356 410 10,300 -835 Descending Potomac TRACON
Sat 09:21:01 AM 39.2333 -76.6167 218° Southwest 345 397 10,000 -149 Descending Potomac TRACON
Sat 09:22:01 AM 39.1667 -76.6833 218° Southwest 290 334 10,000  Level Potomac TRACON
Sat 09:23:01 AM 39.1000 -76.7500 218° Southwest 293 337 10,000  Level Potomac TRACON
Sat 09:24:01 AM 39.0333 -76.8167 218° Southwest 294 338 10,000 -835 Level Potomac TRACON
Sat 09:24:56 AM 38.9833 -76.8833 226° Southwest 284 327 8,400 -1,617 Descending Potomac TRACON
Sat 09:25:56 AM 38.9167 -76.9333 210° Southwest 277 319 6,900 -1,200 Descending Potomac TRACON
Sat 09:26:56 AM 38.8667 -76.9500 195° South 216 249 6,000 -1,400 Descending Potomac TRACON
Sat 09:27:56 AM 38.8000 -76.9500 180° South 196 226 4,100 -1,053 Descending Potomac TRACON
Sat 09:28:50 AM 38.7667 -76.9500 180° South 173 199 4,000 -55 Descending Potomac TRACON
Sat 09:29:45 AM 38.7167 -76.9333 165° South 179 206 4,000  Level Potomac TRACON
Sat 09:30:45 AM 38.6667 -76.9333 180° South 175 201 4,000 -261 Level Potomac TRACON
Sat 09:31:40 AM 38.6500 -76.9667 237° Southwest 174 200 3,500 -522 Descending Potomac TRACON
Sat 09:32:40 AM 38.6500 -77.0167 270° West 191 220 3,000 -500 Descending Potomac TRACON

Login

Don't have an account? Register now (free) for customized features, flight alerts, and more!